sensor_id;sensor_type;location;lat;lon;timestamp;temperature;humidity
20422;DHT22;10370;53.102;18.034;2023-04-06T00:02:18;-1.60;99.90
20422;DHT22;10370;53.102;18.034;2023-04-06T00:07:46;-1.50;99.90
20422;DHT22;10370;53.102;18.034;2023-04-06T00:13:16;-1.50;99.90
20422;DHT22;10370;53.102;18.034;2023-04-06T00:18:39;-1.60;99.90
20422;DHT22;10370;53.102;18.034;2023-04-06T00:24:06;-1.50;99.90
20422;DHT22;10370;53.102;18.034;2023-04-06T00:29:31;-1.50;99.90
20422;DHT22;10370;53.102;18.034;2023-04-06T00:34:57;-1.50;99.90
20422;DHT22;10370;53.102;18.034;2023-04-06T00:40:27;-1.60;99.90
20422;DHT22;10370;53.102;18.034;2023-04-06T00:45:51;-1.70;99.90
20422;DHT22;10370;53.102;18.034;2023-04-06T00:51:12;-1.80;99.90
20422;DHT22;10370;53.102;18.034;2023-04-06T00:56:35;-1.90;99.90
20422;DHT22;10370;53.102;18.034;2023-04-06T01:01:59;-2.00;99.90
20422;DHT22;10370;53.102;18.034;2023-04-06T01:07:50;-2.10;99.90
20422;DHT22;10370;53.102;18.034;2023-04-06T01:13:28;-2.20;99.90
20422;DHT22;10370;53.102;18.034;2023-04-06T01:18:53;-2.30;99.90
20422;DHT22;10370;53.102;18.034;2023-04-06T01:24:19;-2.40;99.90
20422;DHT22;10370;53.102;18.034;2023-04-06T01:29:44;-2.40;99.90
20422;DHT22;10370;53.102;18.034;2023-04-06T01:35:19;-2.50;99.90
20422;DHT22;10370;53.102;18.034;2023-04-06T01:40:57;-2.60;99.90
20422;DHT22;10370;53.102;18.034;2023-04-06T01:46:25;-2.60;99.90
20422;DHT22;10370;53.102;18.034;2023-04-06T01:51:49;-2.70;99.90
20422;DHT22;10370;53.102;18.034;2023-04-06T01:57:14;-2.70;99.90
20422;DHT22;10370;53.102;18.034;2023-04-06T02:02:41;-2.80;99.90
20422;DHT22;10370;53.102;18.034;2023-04-06T02:08:07;-2.80;99.90
20422;DHT22;10370;53.102;18.034;2023-04-06T02:13:41;-2.90;99.90
20422;DHT22;10370;53.102;18.034;2023-04-06T02:24:51;-3.00;99.90
20422;DHT22;10370;53.102;18.034;2023-04-06T02:30:16;-3.10;99.90
20422;DHT22;10370;53.102;18.034;2023-04-06T02:35:45;-3.10;99.90
20422;DHT22;10370;53.102;18.034;2023-04-06T02:41:10;-3.10;99.90
20422;DHT22;10370;53.102;18.034;2023-04-06T02:46:41;-3.20;99.90
20422;DHT22;10370;53.102;18.034;2023-04-06T02:52:08;-3.20;99.90
20422;DHT22;10370;53.102;18.034;2023-04-06T02:57:31;-3.10;99.90
20422;DHT22;10370;53.102;18.034;2023-04-06T03:02:54;-3.00;99.90
20422;DHT22;10370;53.102;18.034;2023-04-06T03:08:25;-3.10;99.90
20422;DHT22;10370;53.102;18.034;2023-04-06T03:13:50;-3.10;99.90
20422;DHT22;10370;53.102;18.034;2023-04-06T03:19:15;-3.00;99.90
20422;DHT22;10370;53.102;18.034;2023-04-06T03:24:40;-2.90;99.90
20422;DHT22;10370;53.102;18.034;2023-04-06T03:30:04;-3.00;99.90
20422;DHT22;10370;53.102;18.034;2023-04-06T03:35:45;-3.00;99.90
20422;DHT22;10370;53.102;18.034;2023-04-06T03:41:11;-3.00;99.90
20422;DHT22;10370;53.102;18.034;2023-04-06T03:46:43;-3.00;99.90
20422;DHT22;10370;53.102;18.034;2023-04-06T03:52:26;-3.10;99.90
20422;DHT22;10370;53.102;18.034;2023-04-06T04:03:47;-3.10;99.90
20422;DHT22;10370;53.102;18.034;2023-04-06T04:09:31;-3.10;99.90
20422;DHT22;10370;53.102;18.034;2023-04-06T04:15:04;-3.20;99.90
20422;DHT22;10370;53.102;18.034;2023-04-06T04:26:59;-3.30;99.90
20422;DHT22;10370;53.102;18.034;2023-04-06T04:32:34;-3.30;99.90
20422;DHT22;10370;53.102;18.034;2023-04-06T04:38:32;-3.40;99.90
20422;DHT22;10370;53.102;18.034;2023-04-06T04:50:40;-3.40;99.90
20422;DHT22;10370;53.102;18.034;2023-04-06T04:56:01;-3.30;99.90
20422;DHT22;10370;53.102;18.034;2023-04-06T05:01:22;-3.40;99.90
20422;DHT22;10370;53.102;18.034;2023-04-06T05:06:46;-3.20;99.90
20422;DHT22;10370;53.102;18.034;2023-04-06T05:12:34;-3.10;99.90
20422;DHT22;10370;53.102;18.034;2023-04-06T05:17:59;-2.90;99.90
20422;DHT22;10370;53.102;18.034;2023-04-06T05:23:48;-2.80;99.90
20422;DHT22;10370;53.102;18.034;2023-04-06T05:29:11;-2.60;99.90
20422;DHT22;10370;53.102;18.034;2023-04-06T05:34:36;-2.30;99.90
20422;DHT22;10370;53.102;18.034;2023-04-06T05:40:09;-2.10;99.90
20422;DHT22;10370;53.102;18.034;2023-04-06T05:45:34;-2.00;99.90
20422;DHT22;10370;53.102;18.034;2023-04-06T05:51:00;-1.80;99.90
20422;DHT22;10370;53.102;18.034;2023-04-06T05:56:23;-1.60;99.90
20422;DHT22;10370;53.102;18.034;2023-04-06T06:01:46;-1.50;99.90
20422;DHT22;10370;53.102;18.034;2023-04-06T06:07:09;-1.40;99.90
20422;DHT22;10370;53.102;18.034;2023-04-06T06:12:30;-1.20;99.90
20422;DHT22;10370;53.102;18.034;2023-04-06T06:17:51;-1.00;99.90
20422;DHT22;10370;53.102;18.034;2023-04-06T06:23:12;-0.90;99.90
20422;DHT22;10370;53.102;18.034;2023-04-06T06:28:33;-0.80;99.90
20422;DHT22;10370;53.102;18.034;2023-04-06T06:33:54;-0.70;99.90
20422;DHT22;10370;53.102;18.034;2023-04-06T06:39:29;-0.60;99.90
20422;DHT22;10370;53.102;18.034;2023-04-06T06:44:53;-0.40;99.90
20422;DHT22;10370;53.102;18.034;2023-04-06T06:50:15;-0.30;99.90
20422;DHT22;10370;53.102;18.034;2023-04-06T06:55:48;-0.10;99.90
20422;DHT22;10370;53.102;18.034;2023-04-06T07:01:09;0.20;99.90
20422;DHT22;10370;53.102;18.034;2023-04-06T07:06:31;0.30;99.90
20422;DHT22;10370;53.102;18.034;2023-04-06T07:11:53;0.60;99.90
20422;DHT22;10370;53.102;18.034;2023-04-06T07:17:14;1.00;99.90
20422;DHT22;10370;53.102;18.034;2023-04-06T07:22:38;1.30;99.90
20422;DHT22;10370;53.102;18.034;2023-04-06T07:28:05;1.70;99.90
20422;DHT22;10370;53.102;18.034;2023-04-06T07:33:27;2.00;99.90
20422;DHT22;10370;53.102;18.034;2023-04-06T07:38:53;2.40;99.90
20422;DHT22;10370;53.102;18.034;2023-04-06T07:44:15;2.70;99.90
20422;DHT22;10370;53.102;18.034;2023-04-06T07:49:37;2.90;99.90
20422;DHT22;10370;53.102;18.034;2023-04-06T07:55:02;3.20;99.90
20422;DHT22;10370;53.102;18.034;2023-04-06T08:00:26;3.50;99.90
20422;DHT22;10370;53.102;18.034;2023-04-06T08:05:51;3.60;99.90
20422;DHT22;10370;53.102;18.034;2023-04-06T08:11:18;3.90;99.90
20422;DHT22;10370;53.102;18.034;2023-04-06T08:16:38;4.10;99.90
20422;DHT22;10370;53.102;18.034;2023-04-06T08:22:04;4.20;99.90
20422;DHT22;10370;53.102;18.034;2023-04-06T08:27:29;4.10;99.90
20422;DHT22;10370;53.102;18.034;2023-04-06T08:32:52;4.00;99.90
20422;DHT22;10370;53.102;18.034;2023-04-06T08:38:13;4.10;99.90
20422;DHT22;10370;53.102;18.034;2023-04-06T08:43:47;4.20;99.90
20422;DHT22;10370;53.102;18.034;2023-04-06T08:49:11;4.20;99.90
20422;DHT22;10370;53.102;18.034;2023-04-06T08:54:34;4.30;99.90
20422;DHT22;10370;53.102;18.034;2023-04-06T08:59:56;4.40;99.90
20422;DHT22;10370;53.102;18.034;2023-04-06T09:05:20;4.50;99.90
20422;DHT22;10370;53.102;18.034;2023-04-06T09:10:45;4.50;99.90
20422;DHT22;10370;53.102;18.034;2023-04-06T09:16:07;4.60;99.90
20422;DHT22;10370;53.102;18.034;2023-04-06T09:21:28;4.80;99.90
20422;DHT22;10370;53.102;18.034;2023-04-06T09:26:49;5.30;99.90
20422;DHT22;10370;53.102;18.034;2023-04-06T09:32:11;5.40;99.90
20422;DHT22;10370;53.102;18.034;2023-04-06T09:37:32;5.30;99.90
20422;DHT22;10370;53.102;18.034;2023-04-06T09:42:54;5.10;99.90
20422;DHT22;10370;53.102;18.034;2023-04-06T09:48:20;5.20;99.90
20422;DHT22;10370;53.102;18.034;2023-04-06T09:53:48;5.20;99.90
20422;DHT22;10370;53.102;18.034;2023-04-06T09:59:20;5.10;99.90
20422;DHT22;10370;53.102;18.034;2023-04-06T10:05:55;4.90;99.90
20422;DHT22;10370;53.102;18.034;2023-04-06T10:10:50;5.40;99.90
20422;DHT22;10370;53.102;18.034;2023-04-06T10:16:13;5.80;99.90
20422;DHT22;10370;53.102;18.034;2023-04-06T10:21:35;5.40;99.90
20422;DHT22;10370;53.102;18.034;2023-04-06T10:27:04;5.50;99.90
20422;DHT22;10370;53.102;18.034;2023-04-06T10:32:38;5.30;99.90
20422;DHT22;10370;53.102;18.034;2023-04-06T10:38:04;5.70;99.90
20422;DHT22;10370;53.102;18.034;2023-04-06T10:43:26;5.80;99.90
20422;DHT22;10370;53.102;18.034;2023-04-06T10:48:47;5.80;99.90
20422;DHT22;10370;53.102;18.034;2023-04-06T10:54:09;5.80;99.90
20422;DHT22;10370;53.102;18.034;2023-04-06T10:59:34;6.00;99.90
20422;DHT22;10370;53.102;18.034;2023-04-06T11:04:58;5.80;99.90
20422;DHT22;10370;53.102;18.034;2023-04-06T11:10:24;6.10;99.90
20422;DHT22;10370;53.102;18.034;2023-04-06T11:15:48;6.10;99.90
20422;DHT22;10370;53.102;18.034;2023-04-06T11:21:10;6.20;99.90
20422;DHT22;10370;53.102;18.034;2023-04-06T11:26:31;6.20;99.90
20422;DHT22;10370;53.102;18.034;2023-04-06T11:37:19;6.50;99.90
20422;DHT22;10370;53.102;18.034;2023-04-06T11:42:41;6.40;99.90
20422;DHT22;10370;53.102;18.034;2023-04-06T11:48:16;6.40;99.90
20422;DHT22;10370;53.102;18.034;2023-04-06T11:53:46;6.50;99.90
20422;DHT22;10370;53.102;18.034;2023-04-06T11:59:11;6.50;99.90
20422;DHT22;10370;53.102;18.034;2023-04-06T12:04:34;6.40;99.90
20422;DHT22;10370;53.102;18.034;2023-04-06T12:10:00;6.60;99.90
20422;DHT22;10370;53.102;18.034;2023-04-06T12:15:24;6.60;99.90
20422;DHT22;10370;53.102;18.034;2023-04-06T12:20:45;6.70;99.90
20422;DHT22;10370;53.102;18.034;2023-04-06T12:26:07;6.70;99.90
20422;DHT22;10370;53.102;18.034;2023-04-06T12:31:36;6.70;99.90
20422;DHT22;10370;53.102;18.034;2023-04-06T12:36:59;6.80;99.90
20422;DHT22;10370;53.102;18.034;2023-04-06T12:42:22;7.10;99.90
20422;DHT22;10370;53.102;18.034;2023-04-06T12:47:47;7.30;99.90
20422;DHT22;10370;53.102;18.034;2023-04-06T12:53:08;7.40;99.90
20422;DHT22;10370;53.102;18.034;2023-04-06T12:58:29;7.60;99.90
20422;DHT22;10370;53.102;18.034;2023-04-06T13:03:53;7.50;99.90
20422;DHT22;10370;53.102;18.034;2023-04-06T13:09:15;7.50;99.90
20422;DHT22;10370;53.102;18.034;2023-04-06T13:14:38;7.40;99.90
20422;DHT22;10370;53.102;18.034;2023-04-06T13:20:05;7.70;99.90
20422;DHT22;10370;53.102;18.034;2023-04-06T13:25:31;7.50;99.90
20422;DHT22;10370;53.102;18.034;2023-04-06T13:30:57;7.80;99.90
20422;DHT22;10370;53.102;18.034;2023-04-06T13:36:18;8.00;99.90
20422;DHT22;10370;53.102;18.034;2023-04-06T13:41:41;7.90;99.90
20422;DHT22;10370;53.102;18.034;2023-04-06T13:47:05;7.70;99.90
20422;DHT22;10370;53.102;18.034;2023-04-06T13:52:30;7.60;99.90
20422;DHT22;10370;53.102;18.034;2023-04-06T13:57:56;7.50;99.90
20422;DHT22;10370;53.102;18.034;2023-04-06T14:03:19;7.40;99.90
20422;DHT22;10370;53.102;18.034;2023-04-06T14:08:43;7.40;99.90
20422;DHT22;10370;53.102;18.034;2023-04-06T14:14:07;7.40;99.90
20422;DHT22;10370;53.102;18.034;2023-04-06T14:19:30;7.50;99.90
20422;DHT22;10370;53.102;18.034;2023-04-06T14:24:52;7.60;99.90
20422;DHT22;10370;53.102;18.034;2023-04-06T14:30:14;7.50;99.90
20422;DHT22;10370;53.102;18.034;2023-04-06T14:35:38;7.50;99.90
20422;DHT22;10370;53.102;18.034;2023-04-06T14:41:02;7.50;99.90
20422;DHT22;10370;53.102;18.034;2023-04-06T14:46:27;7.40;99.90
20422;DHT22;10370;53.102;18.034;2023-04-06T14:51:54;7.50;99.90
20422;DHT22;10370;53.102;18.034;2023-04-06T14:57:17;7.70;99.90
20422;DHT22;10370;53.102;18.034;2023-04-06T15:02:44;7.60;99.90
20422;DHT22;10370;53.102;18.034;2023-04-06T15:08:07;7.60;99.90
20422;DHT22;10370;53.102;18.034;2023-04-06T15:13:35;7.60;99.90
20422;DHT22;10370;53.102;18.034;2023-04-06T15:19:02;7.30;99.90
20422;DHT22;10370;53.102;18.034;2023-04-06T15:24:27;7.40;99.90
20422;DHT22;10370;53.102;18.034;2023-04-06T15:29:52;7.30;99.90
20422;DHT22;10370;53.102;18.034;2023-04-06T15:35:18;7.20;99.90
20422;DHT22;10370;53.102;18.034;2023-04-06T15:40:48;7.20;99.90
20422;DHT22;10370;53.102;18.034;2023-04-06T15:46:13;7.00;99.90
20422;DHT22;10370;53.102;18.034;2023-04-06T15:51:36;7.00;99.90
20422;DHT22;10370;53.102;18.034;2023-04-06T15:57:02;6.90;99.90
20422;DHT22;10370;53.102;18.034;2023-04-06T16:02:25;6.80;99.90
20422;DHT22;10370;53.102;18.034;2023-04-06T16:07:48;6.80;99.90
20422;DHT22;10370;53.102;18.034;2023-04-06T16:13:12;6.70;99.90
20422;DHT22;10370;53.102;18.034;2023-04-06T16:18:38;6.70;99.90
20422;DHT22;10370;53.102;18.034;2023-04-06T16:24:01;6.60;99.90
20422;DHT22;10370;53.102;18.034;2023-04-06T16:29:25;6.60;99.90
20422;DHT22;10370;53.102;18.034;2023-04-06T16:34:49;6.50;99.90
20422;DHT22;10370;53.102;18.034;2023-04-06T16:40:16;6.30;99.90
20422;DHT22;10370;53.102;18.034;2023-04-06T16:45:41;6.10;99.90
20422;DHT22;10370;53.102;18.034;2023-04-06T16:57:43;5.90;99.90
20422;DHT22;10370;53.102;18.034;2023-04-06T17:03:12;5.60;99.90
20422;DHT22;10370;53.102;18.034;2023-04-06T17:08:48;5.30;99.90
20422;DHT22;10370;53.102;18.034;2023-04-06T17:14:11;5.10;99.90
20422;DHT22;10370;53.102;18.034;2023-04-06T17:25:34;4.80;99.90
20422;DHT22;10370;53.102;18.034;2023-04-06T17:31:00;4.80;99.90
20422;DHT22;10370;53.102;18.034;2023-04-06T17:36:24;4.70;99.90
20422;DHT22;10370;53.102;18.034;2023-04-06T17:41:49;4.70;99.90
20422;DHT22;10370;53.102;18.034;2023-04-06T17:47:13;4.60;99.90
20422;DHT22;10370;53.102;18.034;2023-04-06T17:53:06;4.60;99.90
20422;DHT22;10370;53.102;18.034;2023-04-06T17:58:54;4.60;99.90
20422;DHT22;10370;53.102;18.034;2023-04-06T18:04:21;4.50;99.90
20422;DHT22;10370;53.102;18.034;2023-04-06T18:09:44;4.50;99.90
20422;DHT22;10370;53.102;18.034;2023-04-06T18:15:07;4.40;99.90
20422;DHT22;10370;53.102;18.034;2023-04-06T18:20:38;4.40;99.90
20422;DHT22;10370;53.102;18.034;2023-04-06T18:26:00;4.30;99.90
20422;DHT22;10370;53.102;18.034;2023-04-06T18:31:23;4.30;99.90
20422;DHT22;10370;53.102;18.034;2023-04-06T18:36:48;4.30;99.90
20422;DHT22;10370;53.102;18.034;2023-04-06T18:42:09;4.30;99.90
20422;DHT22;10370;53.102;18.034;2023-04-06T18:47:30;4.30;99.90
20422;DHT22;10370;53.102;18.034;2023-04-06T18:52:51;4.30;99.90
20422;DHT22;10370;53.102;18.034;2023-04-06T18:58:15;4.30;99.90
20422;DHT22;10370;53.102;18.034;2023-04-06T19:04:06;4.20;99.90
20422;DHT22;10370;53.102;18.034;2023-04-06T19:09:40;4.20;99.90
20422;DHT22;10370;53.102;18.034;2023-04-06T19:15:09;4.20;99.90
20422;DHT22;10370;53.102;18.034;2023-04-06T19:20:47;4.20;99.90
20422;DHT22;10370;53.102;18.034;2023-04-06T19:26:12;4.30;99.90
20422;DHT22;10370;53.102;18.034;2023-04-06T19:31:44;4.20;99.90
20422;DHT22;10370;53.102;18.034;2023-04-06T19:37:13;4.20;99.90
20422;DHT22;10370;53.102;18.034;2023-04-06T19:42:37;4.20;99.90
20422;DHT22;10370;53.102;18.034;2023-04-06T19:48:16;4.10;99.90
20422;DHT22;10370;53.102;18.034;2023-04-06T19:53:45;4.10;99.90
20422;DHT22;10370;53.102;18.034;2023-04-06T19:59:08;4.00;99.90
20422;DHT22;10370;53.102;18.034;2023-04-06T20:04:37;4.00;99.90
20422;DHT22;10370;53.102;18.034;2023-04-06T20:10:20;4.00;99.90
20422;DHT22;10370;53.102;18.034;2023-04-06T20:15:54;3.90;99.90
20422;DHT22;10370;53.102;18.034;2023-04-06T20:21:25;3.70;99.90
20422;DHT22;10370;53.102;18.034;2023-04-06T20:26:49;3.70;99.90
20422;DHT22;10370;53.102;18.034;2023-04-06T20:32:17;3.70;99.90
20422;DHT22;10370;53.102;18.034;2023-04-06T20:37:48;3.60;99.90
20422;DHT22;10370;53.102;18.034;2023-04-06T20:43:09;3.50;99.90
20422;DHT22;10370;53.102;18.034;2023-04-06T20:54:10;3.60;99.90
20422;DHT22;10370;53.102;18.034;2023-04-06T20:59:31;3.50;99.90
20422;DHT22;10370;53.102;18.034;2023-04-06T21:05:00;3.50;99.90
20422;DHT22;10370;53.102;18.034;2023-04-06T21:10:28;3.50;99.90
20422;DHT22;10370;53.102;18.034;2023-04-06T21:16:20;3.50;99.90
20422;DHT22;10370;53.102;18.034;2023-04-06T21:21:54;3.50;99.90
20422;DHT22;10370;53.102;18.034;2023-04-06T21:27:21;3.50;99.90
20422;DHT22;10370;53.102;18.034;2023-04-06T21:32:47;3.40;99.90
20422;DHT22;10370;53.102;18.034;2023-04-06T21:38:12;3.40;99.90
20422;DHT22;10370;53.102;18.034;2023-04-06T21:43:40;3.30;99.90
20422;DHT22;10370;53.102;18.034;2023-04-06T21:49:04;3.30;99.90
20422;DHT22;10370;53.102;18.034;2023-04-06T21:54:43;3.20;99.90
20422;DHT22;10370;53.102;18.034;2023-04-06T22:00:09;3.30;99.90
20422;DHT22;10370;53.102;18.034;2023-04-06T22:05:36;3.20;99.90
20422;DHT22;10370;53.102;18.034;2023-04-06T22:11:18;3.20;99.90
20422;DHT22;10370;53.102;18.034;2023-04-06T22:16:49;3.10;99.90
20422;DHT22;10370;53.102;18.034;2023-04-06T22:22:17;3.10;99.90
20422;DHT22;10370;53.102;18.034;2023-04-06T22:27:50;3.00;99.90
20422;DHT22;10370;53.102;18.034;2023-04-06T22:33:13;3.10;99.90
20422;DHT22;10370;53.102;18.034;2023-04-06T22:38:38;3.10;99.90
20422;DHT22;10370;53.102;18.034;2023-04-06T22:44:01;3.10;99.90
20422;DHT22;10370;53.102;18.034;2023-04-06T22:49:26;3.10;99.90
20422;DHT22;10370;53.102;18.034;2023-04-06T22:54:51;3.00;99.90
20422;DHT22;10370;53.102;18.034;2023-04-06T23:00:16;3.00;99.90
20422;DHT22;10370;53.102;18.034;2023-04-06T23:05:41;3.00;99.90
20422;DHT22;10370;53.102;18.034;2023-04-06T23:11:07;2.90;99.90
20422;DHT22;10370;53.102;18.034;2023-04-06T23:16:34;3.00;99.90
20422;DHT22;10370;53.102;18.034;2023-04-06T23:22:01;2.90;99.90
20422;DHT22;10370;53.102;18.034;2023-04-06T23:27:26;2.90;99.90
20422;DHT22;10370;53.102;18.034;2023-04-06T23:32:57;2.80;99.90
20422;DHT22;10370;53.102;18.034;2023-04-06T23:38:20;2.80;99.90
20422;DHT22;10370;53.102;18.034;2023-04-06T23:43:43;2.80;99.90
20422;DHT22;10370;53.102;18.034;2023-04-06T23:49:19;2.80;99.90
20422;DHT22;10370;53.102;18.034;2023-04-06T23:54:45;2.90;99.90
